createdAt,value
2023-04-26T00:02:15.925Z,101835.69
2023-04-26T00:04:42.464Z,101836.72
2023-04-26T00:07:09.161Z,101837.59
2023-04-26T00:09:35.768Z,101839.28
2023-04-26T00:12:02.825Z,101831.09
2023-04-26T00:14:29.385Z,101833.81
2023-04-26T00:16:56.395Z,101838.28
2023-04-26T00:19:24.083Z,101837.41
2023-04-26T00:21:50.567Z,101838.28
2023-04-26T00:24:17.043Z,101841.88
2023-04-26T00:26:43.865Z,101838.28
2023-04-26T00:29:10.350Z,101830.06
2023-04-26T00:31:36.852Z,101828.19
2023-04-26T00:34:03.405Z,101830.94
2023-04-26T00:36:30.006Z,101839.13
2023-04-26T00:38:56.575Z,101834.53
2023-04-26T00:41:24.248Z,101837.25
2023-04-26T00:43:50.819Z,101834.53
2023-04-26T00:46:17.636Z,101835.38
2023-04-26T00:48:44.511Z,101829.06
2023-04-26T00:51:12.488Z,101829.06
2023-04-26T00:53:39.425Z,101836.25
2023-04-26T00:56:16.899Z,101827.03
2023-04-26T00:58:46.252Z,101829.06
2023-04-26T01:01:13.434Z,101827.19
2023-04-26T01:03:41.515Z,101828.03
2023-04-26T01:06:08.283Z,101828.03
2023-04-26T01:08:36.901Z,101830.78
2023-04-26T01:11:04.330Z,101829.75
2023-04-26T01:13:32.660Z,101830.63
2023-04-26T01:16:00.009Z,101824.28
2023-04-26T01:18:26.847Z,101827.19
2023-04-26T01:20:53.959Z,101832.50
2023-04-26T01:23:20.431Z,101830.63
2023-04-26T01:25:47.973Z,101835.22
2023-04-26T01:28:14.469Z,101835.22
2023-04-26T01:30:41.086Z,101837.09
2023-04-26T01:33:07.637Z,101842.56
2023-04-26T01:35:34.179Z,101837.09
2023-04-26T01:38:01.908Z,101838.81
2023-04-26T01:40:28.330Z,101841.56
2023-04-26T01:42:54.776Z,101847.03
2023-04-26T01:45:21.205Z,101839.69
2023-04-26T01:48:06.538Z,101837.09
2023-04-26T01:50:33.126Z,101841.72
2023-04-26T01:52:59.564Z,101836.09
2023-04-26T01:55:26.078Z,101835.22
2023-04-26T01:57:52.519Z,101827.03
2023-04-26T02:00:19.321Z,101837.09
2023-04-26T02:02:49.103Z,101827.88
2023-04-26T02:05:15.684Z,101831.63
2023-04-26T02:07:42.198Z,101835.22
2023-04-26T02:10:09.096Z,101825.31
2023-04-26T02:12:35.832Z,101835.22
2023-04-26T02:15:02.506Z,101827.03
2023-04-26T02:17:29.258Z,101829.75
2023-04-26T02:19:56.692Z,101837.97
2023-04-26T02:22:25.356Z,101836.09
2023-04-26T02:24:52.818Z,101838.81
2023-04-26T02:27:19.962Z,101833.34
2023-04-26T02:29:46.787Z,101843.44
2023-04-26T02:32:14.318Z,101833.34
2023-04-26T02:34:41.332Z,101837.97
2023-04-26T02:37:07.972Z,101839.69
2023-04-26T02:39:34.524Z,101830.78
2023-04-26T02:42:01.178Z,101837.09
2023-04-26T02:44:31.126Z,101825.16
2023-04-26T02:46:58.079Z,101830.78
2023-04-26T02:49:24.836Z,101829.91
2023-04-26T02:51:51.846Z,101828.03
2023-04-26T02:54:18.882Z,101824.44
2023-04-26T02:56:45.495Z,101833.50
2023-04-26T02:59:11.973Z,101824.44
2023-04-26T03:01:38.644Z,101821.72
2023-04-26T03:04:05.718Z,101824.28
2023-04-26T03:06:34.155Z,101826.16
2023-04-26T03:09:00.930Z,101819.81
2023-04-26T03:11:27.614Z,101813.50
2023-04-26T03:13:54.115Z,101812.66
2023-04-26T03:16:21.435Z,101812.66
2023-04-26T03:18:48.401Z,101811.78
2023-04-26T03:21:14.972Z,101816.25
2023-04-26T03:23:41.811Z,101816.25
2023-04-26T03:26:09.079Z,101820.84
2023-04-26T03:28:35.782Z,101818.13
2023-04-26T03:31:02.990Z,101815.38
2023-04-26T03:33:31.575Z,101811.78
2023-04-26T03:35:58.070Z,101815.38
2023-04-26T03:38:25.035Z,101808.19
2023-04-26T03:40:52.038Z,101808.19
2023-04-26T03:43:18.490Z,101809.22
2023-04-26T03:45:48.762Z,101805.47
2023-04-26T03:48:16.503Z,101802.72
2023-04-26T03:50:44.886Z,101803.75
2023-04-26T03:53:11.940Z,101811.94
2023-04-26T03:55:38.571Z,101803.75
2023-04-26T03:58:07.886Z,101805.63
2023-04-26T04:00:37.354Z,101804.59
2023-04-26T04:03:04.149Z,101803.75
2023-04-26T04:05:31.497Z,101808.34
2023-04-26T04:07:59.366Z,101808.34
2023-04-26T04:10:26.039Z,101810.22
2023-04-26T04:12:53.463Z,101809.22
2023-04-26T04:15:21.100Z,101812.97
2023-04-26T04:17:48.617Z,101812.97
2023-04-26T04:20:15.296Z,101812.97
2023-04-26T04:22:42.557Z,101806.63
2023-04-26T04:25:13.761Z,101801.16
2023-04-26T04:27:42.643Z,101808.50
2023-04-26T04:30:10.679Z,101811.25
2023-04-26T04:32:37.969Z,101816.72
2023-04-26T04:35:05.783Z,101812.25
2023-04-26T04:37:33.541Z,101812.25
2023-04-26T04:40:00.806Z,101812.25
2023-04-26T04:42:28.167Z,101824.91
2023-04-26T04:44:57.544Z,101823.03
2023-04-26T04:47:25.784Z,101826.81
2023-04-26T04:49:53.795Z,101827.66
2023-04-26T04:52:23.489Z,101824.06
2023-04-26T04:54:49.992Z,101826.81
2023-04-26T04:57:16.937Z,101831.41
2023-04-26T04:59:45.325Z,101830.38
2023-04-26T05:02:11.980Z,101825.94
2023-04-26T05:04:38.997Z,101829.69
2023-04-26T05:07:06.889Z,101828.69
2023-04-26T05:09:34.786Z,101835.00
2023-04-26T05:12:01.521Z,101839.63
2023-04-26T05:14:29.950Z,101836.88
2023-04-26T05:16:56.635Z,101833.28
2023-04-26T05:19:23.245Z,101841.34
2023-04-26T05:21:49.821Z,101841.34
2023-04-26T05:24:17.025Z,101852.28
2023-04-26T05:26:43.683Z,101843.22
2023-04-26T05:29:10.192Z,101843.22
2023-04-26T05:31:57.695Z,101844.22
2023-04-26T05:34:51.114Z,101848.84
2023-04-26T05:37:17.623Z,101846.97
2023-04-26T05:39:44.478Z,101854.16
2023-04-26T05:42:11.096Z,101853.28
2023-04-26T05:44:38.599Z,101858.75
2023-04-26T05:47:05.286Z,101855.00
2023-04-26T05:49:31.877Z,101858.75
2023-04-26T05:52:00.798Z,101863.22
2023-04-26T05:54:27.999Z,101865.94
2023-04-26T05:56:55.815Z,101865.09
2023-04-26T05:59:24.658Z,101863.22
2023-04-26T06:01:51.704Z,101857.75
2023-04-26T06:04:18.658Z,101868.69
2023-04-26T06:07:00.955Z,101865.94
2023-04-26T06:09:27.680Z,101865.94
2023-04-26T06:11:54.351Z,101865.94
2023-04-26T06:14:29.979Z,101868.69
2023-04-26T06:16:58.526Z,101866.09
2023-04-26T06:19:27.004Z,101871.56
2023-04-26T06:21:55.342Z,101865.09
2023-04-26T06:24:23.615Z,101871.41
2023-04-26T06:26:50.119Z,101868.84
2023-04-26T06:29:17.031Z,101866.97
2023-04-26T06:31:43.623Z,101868.84
2023-04-26T06:34:10.166Z,101864.22
2023-04-26T06:36:36.905Z,101866.09
2023-04-26T06:39:03.941Z,101869.69
2023-04-26T06:41:31.196Z,101869.69
2023-04-26T06:43:57.770Z,101871.56
2023-04-26T06:46:30.613Z,101883.38
2023-04-26T06:48:57.099Z,101873.47
2023-04-26T06:51:24.875Z,101881.66
2023-04-26T06:53:52.602Z,101881.66
2023-04-26T06:56:19.336Z,101880.81
2023-04-26T06:59:08.015Z,101880.66
2023-04-26T07:01:35.502Z,101883.69
2023-04-26T07:04:03.822Z,101889.16
2023-04-26T07:06:31.438Z,101884.56
2023-04-26T07:09:02.788Z,101894.63
2023-04-26T07:11:29.652Z,101892.75
2023-04-26T07:13:56.861Z,101891.03
2023-04-26T07:16:24.168Z,101885.56
2023-04-26T07:18:52.697Z,101884.72
2023-04-26T07:21:19.223Z,101880.09
2023-04-26T07:23:46.008Z,101883.69
2023-04-26T07:26:12.520Z,101882.84
2023-04-26T07:28:39.002Z,101882.84
2023-04-26T07:31:07.836Z,101874.78
2023-04-26T07:33:35.648Z,101887.44
2023-04-26T07:36:02.279Z,101883.84
2023-04-26T07:38:28.775Z,101885.72
2023-04-26T07:40:55.435Z,101887.44
2023-04-26T07:43:23.200Z,101883.69
2023-04-26T07:45:49.737Z,101871.19
2023-04-26T07:48:17.020Z,101884.72
2023-04-26T07:50:43.597Z,101887.59
2023-04-26T07:53:10.312Z,101882.13
2023-04-26T07:55:37.591Z,101887.59
2023-04-26T07:58:04.528Z,101879.41
2023-04-26T08:00:31.068Z,101876.66
2023-04-26T08:02:57.925Z,101880.25
2023-04-26T08:05:24.922Z,101881.28
2023-04-26T08:07:51.643Z,101892.22
2023-04-26T08:10:18.233Z,101888.63
2023-04-26T08:12:44.841Z,101886.75
2023-04-26T08:15:12.068Z,101892.22
2023-04-26T08:17:38.735Z,101890.50
2023-04-26T08:20:06.096Z,101894.09
2023-04-26T08:22:32.612Z,101893.22
2023-04-26T08:24:59.089Z,101899.56
2023-04-26T08:27:26.048Z,101906.91
2023-04-26T08:29:52.503Z,101914.09
2023-04-26T08:32:19.065Z,101905.03
2023-04-26T08:34:45.588Z,101904.16
2023-04-26T08:37:13.939Z,101907.75
2023-04-26T08:39:41.790Z,101911.34
2023-04-26T08:42:16.687Z,101905.88
2023-04-26T08:44:44.818Z,101895.97
2023-04-26T08:47:18.633Z,101897.69
2023-04-26T08:49:59.672Z,101896.66
2023-04-26T08:52:32.079Z,101897.69
2023-04-26T08:55:00.347Z,101897.84
2023-04-26T08:57:27.213Z,101891.34
2023-04-26T08:59:56.266Z,101893.22
2023-04-26T09:02:23.917Z,101891.34
2023-04-26T09:04:51.450Z,101888.78
2023-04-26T09:07:26.393Z,101888.63
2023-04-26T09:09:54.878Z,101888.78
2023-04-26T09:12:21.446Z,101887.06
2023-04-26T09:14:48.337Z,101891.50
2023-04-26T09:17:37.971Z,101883.31
2023-04-26T09:20:27.713Z,101883.31
2023-04-26T09:23:17.016Z,101885.34
2023-04-26T09:25:43.616Z,101881.91
2023-04-26T09:28:22.395Z,101882.59
2023-04-26T09:30:49.215Z,101884.47
2023-04-26T09:33:15.941Z,101878.16
2023-04-26T09:35:44.108Z,101879.88
2023-04-26T09:38:13.968Z,101879.88
2023-04-26T09:40:46.138Z,101877.13
2023-04-26T09:43:15.923Z,101870.66
2023-04-26T09:45:49.392Z,101870.66
2023-04-26T09:48:23.187Z,101876.13
2023-04-26T09:50:54.815Z,101875.25
2023-04-26T09:53:37.135Z,101876.13
2023-04-26T09:56:14.892Z,101875.25
2023-04-26T09:58:47.759Z,101884.31
2023-04-26T10:01:18.841Z,101883.47
2023-04-26T10:03:47.228Z,101878.00
2023-04-26T10:06:14.204Z,101878.84
2023-04-26T10:08:40.976Z,101875.25
2023-04-26T10:11:07.960Z,101884.31
2023-04-26T10:13:35.095Z,101879.72
2023-04-26T10:16:02.377Z,101873.38
2023-04-26T10:18:30.431Z,101877.13
2023-04-26T10:21:05.444Z,101876.97
2023-04-26T10:23:33.196Z,101876.59
2023-04-26T10:25:59.750Z,101878.47
2023-04-26T10:28:44.330Z,101875.56
2023-04-26T10:31:11.745Z,101878.47
2023-04-26T10:33:38.395Z,101882.06
2023-04-26T10:36:08.852Z,101879.31
2023-04-26T10:38:37.615Z,101878.31
2023-04-26T10:41:30.215Z,101879.16
2023-04-26T10:43:59.698Z,101873.00
2023-04-26T10:46:43.209Z,101870.09
2023-04-26T10:49:14.929Z,101871.13
2023-04-26T10:51:41.888Z,101868.38
2023-04-26T10:54:09.160Z,101867.38
2023-04-26T10:56:38.616Z,101860.88
2023-04-26T11:01:42.215Z,101859.00
2023-04-26T11:04:10.416Z,101860.72
2023-04-26T11:06:54.286Z,101855.97
2023-04-26T11:09:34.803Z,101859.72
2023-04-26T11:12:01.473Z,101856.13
2023-04-26T11:14:28.402Z,101859.56
2023-04-26T11:16:54.935Z,101838.53
2023-04-26T11:19:21.418Z,101853.06
2023-04-26T11:21:47.919Z,101848.47
2023-04-26T11:24:17.440Z,101851.03
2023-04-26T11:26:51.270Z,101850.00
2023-04-26T11:29:21.373Z,101846.41
2023-04-26T11:31:55.025Z,101851.72
2023-04-26T11:34:41.938Z,101847.28
2023-04-26T11:37:08.480Z,101848.13
2023-04-26T11:39:36.847Z,101838.06
2023-04-26T11:42:09.961Z,101841.50
2023-04-26T11:44:37.929Z,101830.72
2023-04-26T11:47:06.646Z,101836.03
2023-04-26T11:49:37.532Z,101834.16
2023-04-26T11:52:05.161Z,101829.53
2023-04-26T11:54:34.165Z,101819.44
2023-04-26T11:57:01.040Z,101823.03
2023-04-26T11:59:31.724Z,101827.66
2023-04-26T12:01:58.847Z,101829.38
2023-04-26T12:04:30.436Z,101824.75
2023-04-26T12:06:58.166Z,101822.03
2023-04-26T12:09:27.963Z,101829.22
2023-04-26T12:12:16.797Z,101833.81
2023-04-26T12:14:43.386Z,101834.69
2023-04-26T12:17:10.492Z,101833.81
2023-04-26T12:19:37.992Z,101838.28
2023-04-26T12:22:06.037Z,101841.00
2023-04-26T12:24:34.624Z,101830.94
2023-04-26T12:27:02.923Z,101837.41
2023-04-26T12:29:30.810Z,101845.78
2023-04-26T12:31:58.906Z,101835.69
2023-04-26T12:34:25.708Z,101840.31
2023-04-26T12:36:52.249Z,101832.97
2023-04-26T12:39:18.873Z,101839.28
2023-04-26T12:41:46.304Z,101839.47
2023-04-26T12:44:14.359Z,101844.94
2023-04-26T12:46:41.134Z,101840.31
2023-04-26T12:49:07.858Z,101844.06
2023-04-26T12:51:34.654Z,101847.66
2023-04-26T12:54:01.183Z,101848.69
2023-04-26T12:56:29.660Z,101850.41
2023-04-26T12:58:56.169Z,101845.94
2023-04-26T13:01:22.760Z,101845.94
2023-04-26T13:03:49.513Z,101842.34
2023-04-26T13:06:16.726Z,101846.97
2023-04-26T13:08:43.327Z,101848.69
2023-04-26T13:11:09.926Z,101841.50
2023-04-26T13:13:43.910Z,101846.09
2023-04-26T13:16:12.554Z,101854.31
2023-04-26T13:18:39.640Z,101844.38
2023-04-26T13:21:06.339Z,101847.13
2023-04-26T13:23:32.897Z,101852.59
2023-04-26T13:25:59.364Z,101847.13
2023-04-26T13:28:25.915Z,101843.53
2023-04-26T13:30:52.800Z,101845.41
2023-04-26T13:33:21.273Z,101839.94
2023-04-26T13:35:48.208Z,101841.81
2023-04-26T13:38:16.035Z,101839.94
2023-04-26T13:40:43.225Z,101839.94
2023-04-26T13:43:09.818Z,101836.19
2023-04-26T13:45:36.447Z,101846.25
2023-04-26T13:48:02.994Z,101847.13
2023-04-26T13:50:29.770Z,101846.25
2023-04-26T13:52:56.770Z,101844.38
2023-04-26T13:55:23.526Z,101845.25
2023-04-26T13:57:49.973Z,101855.16
2023-04-26T14:00:17.056Z,101846.09
2023-04-26T14:02:46.103Z,101852.44
2023-04-26T14:05:13.116Z,101848.69
2023-04-26T14:07:40.877Z,101846.97
2023-04-26T14:10:08.002Z,101843.22
2023-04-26T14:12:35.010Z,101840.47
2023-04-26T14:15:04.278Z,101834.16
2023-04-26T14:17:32.386Z,101838.59
2023-04-26T14:19:59.093Z,101835.88
2023-04-26T14:22:27.306Z,101837.59
2023-04-26T14:24:53.931Z,101838.44
2023-04-26T14:27:20.927Z,101833.81
2023-04-26T14:29:47.647Z,101824.75
2023-04-26T14:32:14.220Z,101830.22
2023-04-26T14:34:40.893Z,101823.75
2023-04-26T14:37:07.599Z,101826.47
2023-04-26T14:39:34.389Z,101822.72
2023-04-26T14:42:01.653Z,101830.94
2023-04-26T14:44:28.808Z,101825.47
2023-04-26T14:46:55.598Z,101829.06
2023-04-26T14:49:22.420Z,101829.22
2023-04-26T14:51:51.261Z,101827.34
2023-04-26T14:54:19.216Z,101835.53
2023-04-26T14:56:47.085Z,101822.72
2023-04-26T14:59:13.667Z,101821.00
2023-04-26T15:01:40.343Z,101813.81
2023-04-26T15:04:07.182Z,101820.16
2023-04-26T15:06:34.327Z,101820.16
2023-04-26T15:09:01.330Z,101822.88
2023-04-26T15:11:27.818Z,101824.75
2023-04-26T15:13:54.302Z,101824.75
2023-04-26T15:16:20.869Z,101821.16
2023-04-26T15:18:47.506Z,101821.00
2023-04-26T15:21:17.650Z,101815.53
2023-04-26T15:23:44.138Z,101808.34
2023-04-26T15:26:10.671Z,101809.38
2023-04-26T15:28:37.261Z,101805.63
2023-04-26T15:31:05.369Z,101807.50
2023-04-26T15:33:32.446Z,101812.09
2023-04-26T15:35:59.145Z,101805.78
2023-04-26T15:38:25.997Z,101803.03
2023-04-26T15:40:53.659Z,101802.19
2023-04-26T15:43:20.485Z,101804.06
2023-04-26T15:45:47.237Z,101804.06
2023-04-26T15:48:13.874Z,101807.66
2023-04-26T15:50:40.747Z,101807.66
2023-04-26T15:53:07.310Z,101806.78
2023-04-26T15:55:33.811Z,101810.38
2023-04-26T15:58:00.463Z,101810.56
2023-04-26T16:00:28.349Z,101816.03
2023-04-26T16:02:55.151Z,101810.56
2023-04-26T16:05:21.796Z,101814.13
2023-04-26T16:07:48.410Z,101815.16
2023-04-26T16:10:14.869Z,101813.28
2023-04-26T16:12:42.833Z,101816.03
2023-04-26T16:15:10.410Z,101813.28
2023-04-26T16:17:37.695Z,101811.56
2023-04-26T16:20:06.775Z,101807.97
2023-04-26T16:22:34.402Z,101813.44
2023-04-26T16:25:06.731Z,101807.13
2023-04-26T16:27:33.618Z,101810.88
2023-04-26T16:30:00.204Z,101808.13
2023-04-26T16:32:26.920Z,101807.28
2023-04-26T16:34:53.577Z,101809.00
2023-04-26T16:37:20.104Z,101805.41
2023-04-26T16:39:46.660Z,101808.13
2023-04-26T16:42:13.192Z,101807.28
2023-04-26T16:44:40.767Z,101811.72
2023-04-26T16:47:07.268Z,101809.00
2023-04-26T16:49:34.218Z,101809.16
2023-04-26T16:52:01.179Z,101805.41
2023-04-26T16:54:28.135Z,101807.44
2023-04-26T16:56:54.828Z,101816.34
2023-04-26T16:59:21.433Z,101808.28
2023-04-26T17:01:48.052Z,101811.88
2023-04-26T17:04:14.782Z,101807.28
2023-04-26T17:06:41.488Z,101812.75
2023-04-26T17:09:08.804Z,101806.41
2023-04-26T17:11:37.285Z,101806.41
2023-04-26T17:14:04.539Z,101813.59
2023-04-26T17:16:31.648Z,101809.16
2023-04-26T17:18:58.533Z,101819.06
2023-04-26T17:21:25.563Z,101819.22
2023-04-26T17:23:52.450Z,101818.38
2023-04-26T17:26:19.028Z,101814.78
2023-04-26T17:28:45.800Z,101821.97
2023-04-26T17:31:12.359Z,101815.63
2023-04-26T17:33:38.947Z,101820.25
2023-04-26T17:36:06.237Z,101816.66
2023-04-26T17:38:32.819Z,101819.38
2023-04-26T17:40:59.606Z,101820.41
2023-04-26T17:43:26.153Z,101822.13
2023-04-26T17:45:52.956Z,101820.41
2023-04-26T17:48:19.656Z,101830.50
2023-04-26T17:50:46.292Z,101836.81
2023-04-26T17:53:12.943Z,101834.94
2023-04-26T17:55:39.413Z,101836.81
2023-04-26T17:58:06.332Z,101843.31
2023-04-26T18:00:32.927Z,101837.84
2023-04-26T18:03:02.776Z,101839.56
2023-04-26T18:05:30.111Z,101842.28
2023-04-26T18:07:56.775Z,101839.56
2023-04-26T18:10:23.414Z,101843.16
2023-04-26T18:12:50.075Z,101846.75
2023-04-26T18:15:16.572Z,101844.00
2023-04-26T18:17:43.609Z,101850.34
2023-04-26T18:20:13.088Z,101854.78
2023-04-26T18:22:40.062Z,101844.84
2023-04-26T18:25:07.168Z,101844.84
2023-04-26T18:27:33.789Z,101843.84
2023-04-26T18:30:00.712Z,101850.19
2023-04-26T18:32:27.222Z,101851.03
2023-04-26T18:34:53.889Z,101847.28
2023-04-26T18:37:20.451Z,101854.63
2023-04-26T18:39:47.052Z,101844.53
2023-04-26T18:42:13.616Z,101846.41
2023-04-26T18:44:40.080Z,101854.63
2023-04-26T18:47:06.602Z,101853.59
2023-04-26T18:49:33.115Z,101856.34
2023-04-26T18:51:59.920Z,101850.00
2023-04-26T18:54:26.972Z,101861.81
2023-04-26T18:56:54.436Z,101862.84
2023-04-26T18:59:21.497Z,101857.19
2023-04-26T19:01:49.353Z,101863.69
2023-04-26T19:04:16.285Z,101860.94
2023-04-26T19:06:42.881Z,101868.16
2023-04-26T19:09:13.736Z,101860.09
2023-04-26T19:11:40.491Z,101862.84
2023-04-26T19:14:07.283Z,101873.78
2023-04-26T19:16:35.156Z,101866.59
2023-04-26T19:19:01.897Z,101881.97
2023-04-26T19:21:28.389Z,101872.91
2023-04-26T19:23:55.059Z,101881.97
2023-04-26T19:26:21.612Z,101883.84
2023-04-26T19:28:48.234Z,101882.13
2023-04-26T19:31:15.065Z,101885.72
2023-04-26T19:33:41.699Z,101892.06
2023-04-26T19:36:09.316Z,101894.78
2023-04-26T19:38:35.976Z,101890.34
2023-04-26T19:41:02.740Z,101898.53
2023-04-26T19:43:29.284Z,101898.53
2023-04-26T19:45:55.899Z,101903.16
2023-04-26T19:48:22.773Z,101901.28
2023-04-26T19:50:49.274Z,101905.03
2023-04-26T19:53:15.805Z,101898.69
2023-04-26T19:55:42.601Z,101903.16
2023-04-26T19:58:10.575Z,101898.69
2023-04-26T20:00:38.577Z,101903.16
2023-04-26T20:03:05.748Z,101902.28
2023-04-26T20:05:33.684Z,101916.81
2023-04-26T20:08:00.760Z,101909.63
2023-04-26T20:10:30.961Z,101907.75
2023-04-26T20:12:57.935Z,101906.91
2023-04-26T20:15:24.542Z,101911.50
2023-04-26T20:17:51.288Z,101906.91
2023-04-26T20:20:17.835Z,101917.84
2023-04-26T20:22:44.544Z,101916.97
2023-04-26T20:25:11.187Z,101920.59
2023-04-26T20:27:38.081Z,101921.44
2023-04-26T20:30:05.239Z,101919.56
2023-04-26T20:32:31.823Z,101920.59
2023-04-26T20:34:58.478Z,101916.13
2023-04-26T20:37:24.924Z,101917.84
2023-04-26T20:39:51.434Z,101920.75
2023-04-26T20:42:17.933Z,101918.84
2023-04-26T20:44:44.482Z,101920.75
2023-04-26T20:47:10.985Z,101915.25
2023-04-26T20:49:37.528Z,101919.88
2023-04-26T20:52:04.402Z,101905.34
2023-04-26T20:54:31.799Z,101908.94
2023-04-26T20:56:58.532Z,101912.53
2023-04-26T20:59:25.901Z,101916.28
2023-04-26T21:01:53.544Z,101915.25
2023-04-26T21:04:20.411Z,101911.66
2023-04-26T21:06:47.323Z,101915.25
2023-04-26T21:09:13.857Z,101914.41
2023-04-26T21:11:40.532Z,101919.00
2023-04-26T21:14:07.191Z,101918.00
2023-04-26T21:16:33.691Z,101916.28
2023-04-26T21:19:00.286Z,101916.28
2023-04-26T21:21:28.626Z,101928.09
2023-04-26T21:23:55.200Z,101926.38
2023-04-26T21:26:21.860Z,101933.56
2023-04-26T21:28:48.628Z,101937.31
2023-04-26T21:31:15.167Z,101942.78
2023-04-26T21:33:41.724Z,101929.09
2023-04-26T21:36:08.408Z,101929.09
2023-04-26T21:38:34.918Z,101930.97
2023-04-26T21:41:01.432Z,101928.22
2023-04-26T21:43:27.903Z,101928.22
2023-04-26T21:45:58.458Z,101926.38
2023-04-26T21:48:26.171Z,101924.66
2023-04-26T21:50:52.827Z,101927.38
2023-04-26T21:53:19.357Z,101926.38
2023-04-26T21:55:52.557Z,101925.50
2023-04-26T21:58:20.078Z,101925.50
2023-04-26T22:00:46.773Z,101917.47
2023-04-26T22:03:14.522Z,101930.13
2023-04-26T22:05:41.185Z,101923.78
2023-04-26T22:08:07.715Z,101930.13
2023-04-26T22:10:34.663Z,101929.09
2023-04-26T22:13:01.194Z,101933.72
2023-04-26T22:15:28.252Z,101932.84
2023-04-26T22:17:54.751Z,101933.72
2023-04-26T22:20:21.717Z,101938.31
2023-04-26T22:22:48.327Z,101933.72
2023-04-26T22:25:14.840Z,101935.59
2023-04-26T22:27:41.332Z,101934.56
2023-04-26T22:30:22.930Z,101937.31
2023-04-26T22:32:54.204Z,101940.19
2023-04-26T22:35:21.647Z,101940.03
2023-04-26T22:37:48.127Z,101936.44
2023-04-26T22:40:15.527Z,101940.03
2023-04-26T22:42:42.782Z,101928.22
2023-04-26T22:45:10.738Z,101933.72
2023-04-26T22:47:37.531Z,101937.31
2023-04-26T22:50:04.976Z,101938.31
2023-04-26T22:52:32.288Z,101944.66
2023-04-26T22:54:59.966Z,101941.91
2023-04-26T22:57:26.986Z,101940.03
2023-04-26T22:59:53.423Z,101942.78
2023-04-26T23:02:20.847Z,101942.78
2023-04-26T23:04:47.747Z,101949.97
2023-04-26T23:07:14.321Z,101954.56
2023-04-26T23:09:41.202Z,101949.97
2023-04-26T23:12:07.818Z,101953.56
2023-04-26T23:14:35.046Z,101957.16
2023-04-26T23:17:02.623Z,101959.19
2023-04-26T23:19:29.311Z,101959.03
2023-04-26T23:21:55.906Z,101960.75
2023-04-26T23:24:22.431Z,101964.34
2023-04-26T23:26:48.959Z,101963.47
2023-04-26T23:29:15.613Z,101965.19
2023-04-26T23:31:42.424Z,101967.94
2023-04-26T23:34:09.070Z,101968.78
2023-04-26T23:36:35.632Z,101975.13
2023-04-26T23:39:02.172Z,101967.94
2023-04-26T23:41:28.691Z,101963.31
2023-04-26T23:43:55.359Z,101968.78
2023-04-26T23:46:21.917Z,101973.25
2023-04-26T23:48:48.377Z,101975.97
2023-04-26T23:51:14.864Z,101972.38
2023-04-26T23:53:41.307Z,101978.72
2023-04-26T23:56:07.793Z,101981.44
2023-04-26T23:58:34.305Z,101980.59
